Time;durP1;ratioP1;P1;durP2;ratioP2;P2;SDS_P1;SDS_P2;PMS_P1;PMS_P2;Temp;Humidity;BMP_temperature;BMP_pressure;BME280_temperature;BME280_humidity;BME280_pressure;Samples;Min_cycle;Max_cycle;Signal;HPM_P1;HPM_P2
2022/12/10 00:00:42;;;;;;;4.68;4.00;;;;;;;;;;10449004;28;20353;-63
2022/12/10 00:05:43;;;;;;;5.05;4.30;;;;;;;;;;10446803;28;20025;-65
2022/12/10 00:10:43;;;;;;;8.43;4.25;;;;;;;;;;10447796;28;20476;-62
2022/12/10 00:15:44;;;;;;;11.32;4.47;;;;;;;;;;10447430;28;20052;-62
2022/12/10 00:20:44;;;;;;;6.07;4.35;;;;;;;;;;10447120;28;20029;-63
2022/12/10 00:25:45;;;;;;;6.32;4.75;;;;;;;;;;10448410;28;20025;-62
2022/12/10 00:30:45;;;;;;;7.18;4.50;;;;;;;;;;10447256;28;20044;-61
2022/12/10 00:35:46;;;;;;;6.38;4.40;;;;;;;;;;10446669;28;20035;-64
2022/12/10 00:40:46;;;;;;;6.63;4.78;;;;;;;;;;10447448;28;20029;-59
2022/12/10 00:45:47;;;;;;;7.45;4.85;;;;;;;;;;10445977;28;20032;-61
2022/12/10 00:51:13;;;;;;;6.97;4.93;;;;;;;;;;10446370;28;20017;-61
2022/12/10 00:56:21;;;;;;;6.10;4.43;;;;;;;;;;10445824;28;20449;-61
2022/12/10 01:01:38;;;;;;;6.00;4.63;;;;;;;;;;10446478;28;20032;-61
2022/12/10 01:06:48;;;;;;;6.25;4.47;;;;;;;;;;10446648;28;20025;-60
2022/12/10 01:11:50;;;;;;;5.65;4.57;;;;;;;;;;10445960;28;20040;-64
2022/12/10 01:16:57;;;;;;;4.75;4.15;;;;;;;;;;10449326;28;20083;-61
2022/12/10 01:21:58;;;;;;;6.38;4.80;;;;;;;;;;10436784;28;20032;-62
2022/12/10 01:26:59;;;;;;;7.45;3.95;;;;;;;;;;10453336;28;20043;-61
2022/12/10 01:31:59;;;;;;;4.72;4.22;;;;;;;;;;10453957;28;20514;-60
2022/12/10 01:37:00;;;;;;;6.55;4.47;;;;;;;;;;10453087;28;20099;-63
2022/12/10 01:42:01;;;;;;;6.93;4.50;;;;;;;;;;10453156;28;20035;-61
2022/12/10 01:47:01;;;;;;;5.72;4.38;;;;;;;;;;10452770;28;20028;-60
2022/12/10 01:52:05;;;;;;;6.35;4.60;;;;;;;;;;10452961;28;20025;-60
2022/12/10 01:57:22;;;;;;;5.78;4.40;;;;;;;;;;10452793;28;20025;-61
2022/12/10 02:02:57;;;;;;;6.40;4.30;;;;;;;;;;10452264;28;20056;-63
2022/12/10 02:08:55;;;;;;;6.45;3.90;;;;;;;;;;10435134;28;20028;-64
2022/12/10 02:14:36;;;;;;;4.80;4.10;;;;;;;;;;10412337;28;20059;-61
2022/12/10 02:19:54;;;;;;;4.85;4.25;;;;;;;;;;10452473;28;20035;-61
2022/12/10 02:24:57;;;;;;;5.70;4.13;;;;;;;;;;10434543;28;20017;-62
2022/12/10 02:29:59;;;;;;;5.88;4.10;;;;;;;;;;10431708;28;20037;-62
2022/12/10 02:35:05;;;;;;;5.63;4.18;;;;;;;;;;10432427;28;20183;-62
2022/12/10 02:40:12;;;;;;;7.30;4.25;;;;;;;;;;10432477;28;20033;-60
2022/12/10 02:45:13;;;;;;;6.07;4.20;;;;;;;;;;10434129;28;20035;-61
2022/12/10 02:50:17;;;;;;;5.05;3.88;;;;;;;;;;10433469;28;20037;-61
2022/12/10 02:55:21;;;;;;;6.07;4.25;;;;;;;;;;10433447;28;20112;-64
2022/12/10 03:00:24;;;;;;;13.00;4.18;;;;;;;;;;10450268;28;20067;-60
2022/12/10 03:05:41;;;;;;;7.07;4.30;;;;;;;;;;10429668;28;20342;-62
2022/12/10 03:11:10;;;;;;;5.18;4.03;;;;;;;;;;10432429;28;20245;-60
2022/12/10 03:16:12;;;;;;;5.57;3.83;;;;;;;;;;10449248;28;20052;-60
2022/12/10 03:21:15;;;;;;;5.22;4.25;;;;;;;;;;10449909;28;20082;-62
2022/12/10 03:26:18;;;;;;;5.15;3.95;;;;;;;;;;10432050;28;20051;-62
2022/12/10 03:31:20;;;;;;;4.53;3.72;;;;;;;;;;10448191;28;20045;-61
2022/12/10 03:36:21;;;;;;;5.75;4.13;;;;;;;;;;10431456;28;20045;-61
2022/12/10 03:41:22;;;;;;;5.05;4.10;;;;;;;;;;10447628;28;20036;-64
2022/12/10 03:46:25;;;;;;;5.75;3.83;;;;;;;;;;10449239;28;20040;-60
2022/12/10 03:51:26;;;;;;;4.18;3.67;;;;;;;;;;10431004;28;20091;-62
2022/12/10 03:56:26;;;;;;;4.65;3.92;;;;;;;;;;10449316;28;20052;-64
2022/12/10 04:01:27;;;;;;;4.90;3.90;;;;;;;;;;10448173;28;20036;-60
2022/12/10 04:06:28;;;;;;;5.45;3.75;;;;;;;;;;10447001;28;20358;-62
2022/12/10 04:11:28;;;;;;;4.05;3.65;;;;;;;;;;10447841;28;20028;-60
2022/12/10 04:16:31;;;;;;;5.40;4.28;;;;;;;;;;10448013;28;20083;-59
2022/12/10 04:26:56;;;;;;;4.43;3.80;;;;;;;;;;10447583;28;20037;-66
2022/12/10 04:31:58;;;;;;;4.32;3.65;;;;;;;;;;10446422;28;20025;-60
2022/12/10 04:37:00;;;;;;;5.93;4.10;;;;;;;;;;10447177;28;20380;-60
2022/12/10 04:42:01;;;;;;;3.65;3.35;;;;;;;;;;10446672;28;20056;-59
2022/12/10 04:47:04;;;;;;;4.85;3.50;;;;;;;;;;10446476;28;20035;-65
2022/12/10 04:52:07;;;;;;;5.35;3.88;;;;;;;;;;10449698;28;20029;-65
2022/12/10 04:57:08;;;;;;;4.07;3.60;;;;;;;;;;10453564;28;20531;-64
2022/12/10 05:02:09;;;;;;;5.70;3.72;;;;;;;;;;10453505;28;20040;-65
2022/12/10 05:07:10;;;;;;;4.45;3.65;;;;;;;;;;10455617;28;20038;-65
2022/12/10 05:12:10;;;;;;;4.40;3.50;;;;;;;;;;10454680;28;20029;-60
2022/12/10 05:17:11;;;;;;;5.25;4.43;;;;;;;;;;10454748;28;20074;-64
2022/12/10 05:27:33;;;;;;;5.57;3.78;;;;;;;;;;10453400;28;20440;-65
2022/12/10 05:32:33;;;;;;;4.18;3.45;;;;;;;;;;10453773;28;20276;-62
2022/12/10 05:37:34;;;;;;;3.88;3.47;;;;;;;;;;10454230;28;20253;-61
2022/12/10 05:42:35;;;;;;;3.80;3.47;;;;;;;;;;10452826;28;20369;-60
2022/12/10 05:47:35;;;;;;;4.68;3.88;;;;;;;;;;10452726;28;20025;-60
2022/12/10 05:52:36;;;;;;;4.20;3.67;;;;;;;;;;10450125;28;20078;-63
2022/12/10 05:57:37;;;;;;;5.05;3.95;;;;;;;;;;10452797;28;20025;-65
2022/12/10 06:02:37;;;;;;;4.38;3.53;;;;;;;;;;10451414;28;20226;-65
2022/12/10 06:07:38;;;;;;;3.38;3.08;;;;;;;;;;10434307;28;20025;-61
2022/12/10 06:12:39;;;;;;;3.85;3.45;;;;;;;;;;10451576;28;20074;-63
2022/12/10 06:17:39;;;;;;;4.15;3.75;;;;;;;;;;10452173;28;20021;-62
2022/12/10 06:22:40;;;;;;;4.25;3.67;;;;;;;;;;10451969;28;20091;-64
2022/12/10 06:27:40;;;;;;;5.15;3.53;;;;;;;;;;10450602;28;20033;-63
2022/12/10 06:32:42;;;;;;;3.65;3.35;;;;;;;;;;10448452;28;20033;-64
2022/12/10 06:37:43;;;;;;;3.78;3.40;;;;;;;;;;10450332;28;20855;-60
2022/12/10 06:42:44;;;;;;;11.48;3.47;;;;;;;;;;10450253;28;20209;-63
2022/12/10 06:47:44;;;;;;;7.47;3.60;;;;;;;;;;10450733;28;20096;-61
2022/12/10 06:52:45;;;;;;;6.10;3.90;;;;;;;;;;10444382;28;20048;-63
2022/12/10 06:57:45;;;;;;;5.40;3.78;;;;;;;;;;10449828;28;20041;-63
2022/12/10 07:02:46;;;;;;;5.22;3.40;;;;;;;;;;10450315;28;20032;-64
2022/12/10 07:07:47;;;;;;;9.07;4.10;;;;;;;;;;10442144;28;20041;-64
2022/12/10 07:12:47;;;;;;;8.18;3.30;;;;;;;;;;10446807;28;20024;-64
2022/12/10 07:17:50;;;;;;;6.05;3.30;;;;;;;;;;10448637;28;20029;-64
2022/12/10 07:22:50;;;;;;;5.22;3.50;;;;;;;;;;10443945;28;20427;-63
2022/12/10 07:27:51;;;;;;;4.07;3.30;;;;;;;;;;10447907;28;20029;-62
2022/12/10 07:32:52;;;;;;;3.75;3.17;;;;;;;;;;10446208;28;20040;-62
2022/12/10 07:37:52;;;;;;;5.32;3.33;;;;;;;;;;10446194;28;20021;-64
2022/12/10 07:42:53;;;;;;;5.60;3.67;;;;;;;;;;10445071;28;20029;-62
2022/12/10 07:47:53;;;;;;;7.80;3.67;;;;;;;;;;10445965;28;20033;-63
2022/12/10 07:52:54;;;;;;;4.18;3.40;;;;;;;;;;10445686;28;20043;-63
2022/12/10 07:57:55;;;;;;;4.30;3.83;;;;;;;;;;10446343;28;20029;-64
2022/12/10 08:02:56;;;;;;;3.85;3.30;;;;;;;;;;10444789;28;20315;-61
2022/12/10 08:07:57;;;;;;;6.35;3.88;;;;;;;;;;10442506;28;20100;-66
2022/12/10 08:12:58;;;;;;;4.75;3.38;;;;;;;;;;10426029;28;20060;-60
2022/12/10 08:17:58;;;;;;;4.35;3.40;;;;;;;;;;10439107;28;20037;-63
2022/12/10 08:22:59;;;;;;;4.80;3.60;;;;;;;;;;10442415;28;20090;-66
2022/12/10 08:28:02;;;;;;;7.93;3.88;;;;;;;;;;10441529;28;20553;-63
2022/12/10 08:33:03;;;;;;;5.13;3.90;;;;;;;;;;10444278;28;20546;-61
2022/12/10 08:38:03;;;;;;;8.88;3.90;;;;;;;;;;10445874;28;20029;-62
2022/12/10 08:43:04;;;;;;;5.35;3.85;;;;;;;;;;10440381;28;20029;-62
2022/12/10 08:48:05;;;;;;;5.07;3.70;;;;;;;;;;10439442;28;20472;-59
2022/12/10 08:53:05;;;;;;;5.20;3.60;;;;;;;;;;10444531;28;20052;-61
2022/12/10 08:58:07;;;;;;;7.65;3.80;;;;;;;;;;10442726;28;20437;-64
2022/12/10 09:03:10;;;;;;;6.28;3.80;;;;;;;;;;10445531;28;20115;-63
2022/12/10 09:08:11;;;;;;;3.97;3.42;;;;;;;;;;10446506;28;20108;-65
2022/12/10 09:13:12;;;;;;;5.38;4.07;;;;;;;;;;10433606;28;20033;-62
2022/12/10 09:18:12;;;;;;;9.10;4.05;;;;;;;;;;10442470;28;20297;-65
2022/12/10 09:23:13;;;;;;;5.25;3.97;;;;;;;;;;10419302;28;20082;-64
2022/12/10 09:28:13;;;;;;;5.45;3.97;;;;;;;;;;10443087;28;20033;-66
2022/12/10 09:33:14;;;;;;;4.20;3.80;;;;;;;;;;10445631;28;20381;-65
2022/12/10 09:38:15;;;;;;;6.97;4.32;;;;;;;;;;10446634;28;20036;-64
2022/12/10 09:43:46;;;;;;;5.82;4.40;;;;;;;;;;10451476;28;20025;-64
2022/12/10 09:49:17;;;;;;;8.90;4.50;;;;;;;;;;10451281;28;20056;-61
2022/12/10 09:54:32;;;;;;;5.93;3.90;;;;;;;;;;10448926;28;20437;-65
2022/12/10 09:59:40;;;;;;;8.40;4.55;;;;;;;;;;10432916;28;20173;-62
2022/12/10 10:04:40;;;;;;;6.63;4.13;;;;;;;;;;10435219;28;20029;-62
2022/12/10 10:09:41;;;;;;;10.00;4.43;;;;;;;;;;10445553;28;20520;-59
2022/12/10 10:14:45;;;;;;;5.10;3.88;;;;;;;;;;10449086;28;20032;-64
2022/12/10 10:19:45;;;;;;;5.20;3.90;;;;;;;;;;10451838;28;20029;-60
2022/12/10 10:24:46;;;;;;;6.90;3.97;;;;;;;;;;10452020;28;20028;-60
2022/12/10 10:29:52;;;;;;;5.95;3.58;;;;;;;;;;10431857;28;20051;-59
2022/12/10 10:34:57;;;;;;;6.78;3.92;;;;;;;;;;10437971;28;20099;-59
2022/12/10 10:39:58;;;;;;;4.50;3.80;;;;;;;;;;10442039;28;20056;-60
2022/12/10 10:44:59;;;;;;;9.63;3.95;;;;;;;;;;10435056;28;20108;-62
2022/12/10 10:50:02;;;;;;;4.57;3.13;;;;;;;;;;10446644;28;20451;-59
2022/12/10 10:55:03;;;;;;;4.35;3.88;;;;;;;;;;10449061;28;20036;-61
2022/12/10 11:00:28;;;;;;;4.55;3.78;;;;;;;;;;10449584;28;20071;-62
2022/12/10 11:05:33;;;;;;;9.18;3.80;;;;;;;;;;10448089;28;20103;-64
2022/12/10 11:10:34;;;;;;;6.18;4.13;;;;;;;;;;10445716;28;20033;-62
2022/12/10 11:15:41;;;;;;;4.68;4.07;;;;;;;;;;10448815;28;20033;-59
2022/12/10 11:21:17;;;;;;;4.95;3.58;;;;;;;;;;10449760;28;20396;-64
2022/12/10 11:26:33;;;;;;;5.35;3.85;;;;;;;;;;10445718;28;20037;-64
2022/12/10 11:31:55;;;;;;;6.20;3.67;;;;;;;;;;10444322;28;20045;-61
2022/12/10 11:37:31;;;;;;;6.63;3.88;;;;;;;;;;10447115;28;20037;-64
2022/12/10 11:43:09;;;;;;;7.30;3.85;;;;;;;;;;10442974;28;20032;-64
2022/12/10 11:48:42;;;;;;;10.95;3.58;;;;;;;;;;10392037;28;20049;-64
2022/12/10 11:54:07;;;;;;;7.80;4.25;;;;;;;;;;10439161;28;20105;-62
2022/12/10 11:59:36;;;;;;;6.10;4.03;;;;;;;;;;10435192;28;20453;-64
2022/12/10 12:05:05;;;;;;;6.25;3.88;;;;;;;;;;10444109;28;20032;-61
2022/12/10 12:10:34;;;;;;;12.57;4.20;;;;;;;;;;10426747;28;20542;-65
2022/12/10 12:15:44;;;;;;;8.20;4.35;;;;;;;;;;10424058;28;20041;-62
2022/12/10 12:20:59;;;;;;;8.50;4.45;;;;;;;;;;10424917;28;20547;-63
2022/12/10 12:26:08;;;;;;;9.07;3.83;;;;;;;;;;10427488;28;20392;-61
2022/12/10 12:31:18;;;;;;;6.88;4.00;;;;;;;;;;10428408;28;20063;-63
2022/12/10 12:36:30;;;;;;;9.77;3.63;;;;;;;;;;10428080;28;20033;-63
2022/12/10 12:42:09;;;;;;;7.47;3.67;;;;;;;;;;10425380;28;20037;-65
2022/12/10 12:47:28;;;;;;;7.50;4.07;;;;;;;;;;10431434;28;20063;-63
2022/12/10 12:52:51;;;;;;;;;;;;;;;;;;10443234;28;20029;-65
2022/12/10 12:58:01;;;;;;;7.68;3.72;;;;;;;;;;10442970;28;20365;-64
2022/12/10 13:03:42;;;;;;;11.15;3.95;;;;;;;;;;10443113;28;20052;-60
2022/12/10 13:08:56;;;;;;;8.45;3.92;;;;;;;;;;10429319;28;20094;-64
2022/12/10 13:14:07;;;;;;;4.90;3.63;;;;;;;;;;10447350;28;20059;-66
2022/12/10 13:19:20;;;;;;;9.00;3.80;;;;;;;;;;10431859;28;20098;-65
2022/12/10 13:24:40;;;;;;;8.40;4.30;;;;;;;;;;10446133;28;20067;-65
2022/12/10 13:30:02;;;;;;;12.30;3.85;;;;;;;;;;10431233;28;20060;-66
2022/12/10 13:35:09;;;;;;;4.85;3.30;;;;;;;;;;10452790;28;20036;-66
2022/12/10 13:40:09;;;;;;;7.20;3.63;;;;;;;;;;10451843;28;20029;-66
2022/12/10 13:45:22;;;;;;;7.88;3.70;;;;;;;;;;10452211;28;20401;-66
2022/12/10 13:50:39;;;;;;;8.43;3.70;;;;;;;;;;10445965;28;20040;-66
2022/12/10 13:56:00;;;;;;;8.75;3.58;;;;;;;;;;10424938;28;20025;-66
2022/12/10 14:01:27;;;;;;;7.30;3.42;;;;;;;;;;10435526;28;20032;-66
2022/12/10 14:06:34;;;;;;;7.60;4.07;;;;;;;;;;10416866;28;20107;-62
2022/12/10 14:11:52;;;;;;;6.85;3.72;;;;;;;;;;10451395;28;20205;-65
2022/12/10 14:16:53;;;;;;;5.50;3.27;;;;;;;;;;10452600;28;20037;-65
2022/12/10 14:21:55;;;;;;;4.32;3.60;;;;;;;;;;10433507;28;20029;-66
2022/12/10 14:27:11;;;;;;;4.82;3.58;;;;;;;;;;10426938;28;20029;-66
2022/12/10 14:32:29;;;;;;;4.38;3.70;;;;;;;;;;10438142;28;20037;-65
2022/12/10 14:37:36;;;;;;;4.68;3.60;;;;;;;;;;10447980;28;20102;-66
2022/12/10 14:42:39;;;;;;;4.90;3.05;;;;;;;;;;10444535;28;20116;-64
2022/12/10 14:47:41;;;;;;;4.93;3.40;;;;;;;;;;10448260;28;20051;-66
2022/12/10 14:52:49;;;;;;;9.45;4.72;;;;;;;;;;10448190;28;20040;-63
2022/12/10 14:58:03;;;;;;;7.65;3.55;;;;;;;;;;10438965;28;20040;-65
2022/12/10 15:03:21;;;;;;;8.77;3.78;;;;;;;;;;10421969;28;20025;-62
2022/12/10 15:08:23;;;;;;;11.23;3.47;;;;;;;;;;10417613;28;20498;-61
2022/12/10 15:13:41;;;;;;;4.38;3.25;;;;;;;;;;10448299;28;20384;-65
2022/12/10 15:18:43;;;;;;;4.95;3.22;;;;;;;;;;10416080;28;20025;-65
2022/12/10 15:23:45;;;;;;;4.85;3.47;;;;;;;;;;10429632;28;20028;-62
2022/12/10 15:28:48;;;;;;;5.80;3.65;;;;;;;;;;10427759;28;20046;-64
2022/12/10 15:34:05;;;;;;;5.22;3.65;;;;;;;;;;10430399;28;20079;-63
2022/12/10 15:39:26;;;;;;;6.78;3.30;;;;;;;;;;10442956;28;20033;-61
2022/12/10 15:44:29;;;;;;;4.43;3.47;;;;;;;;;;10444620;28;20094;-64
2022/12/10 15:49:30;;;;;;;4.07;3.42;;;;;;;;;;10448130;28;20036;-62
2022/12/10 15:54:36;;;;;;;5.18;3.47;;;;;;;;;;10444156;28;20440;-62
2022/12/10 15:59:36;;;;;;;4.30;3.50;;;;;;;;;;10445896;28;20064;-63
2022/12/10 16:04:37;;;;;;;7.35;3.83;;;;;;;;;;10443567;28;20036;-64
2022/12/10 16:09:37;;;;;;;4.13;3.00;;;;;;;;;;10443871;28;20033;-60
2022/12/10 16:14:42;;;;;;;5.88;3.88;;;;;;;;;;10444319;28;20037;-60
2022/12/10 16:19:43;;;;;;;5.57;3.80;;;;;;;;;;10421189;28;20024;-62
2022/12/10 16:24:44;;;;;;;4.75;3.50;;;;;;;;;;10434980;28;20044;-63
2022/12/10 16:29:44;;;;;;;4.80;3.67;;;;;;;;;;10433926;28;20041;-63
2022/12/10 16:34:47;;;;;;;5.45;3.60;;;;;;;;;;10443324;28;20114;-60
2022/12/10 16:39:47;;;;;;;6.38;3.92;;;;;;;;;;10446297;28;20134;-58
2022/12/10 16:44:48;;;;;;;6.05;4.07;;;;;;;;;;10444253;28;20090;-58
2022/12/10 16:49:49;;;;;;;5.57;4.25;;;;;;;;;;10442662;28;20017;-60
2022/12/10 16:54:50;;;;;;;5.88;4.35;;;;;;;;;;10452193;28;20025;-58
2022/12/10 16:59:50;;;;;;;6.60;4.35;;;;;;;;;;10449374;28;20423;-60
2022/12/10 17:04:51;;;;;;;7.95;4.00;;;;;;;;;;10454246;28;20378;-58
2022/12/10 17:09:52;;;;;;;5.05;4.03;;;;;;;;;;10453823;28;20541;-61
2022/12/10 17:14:53;;;;;;;7.20;4.35;;;;;;;;;;10452876;28;20083;-65
2022/12/10 17:19:53;;;;;;;5.70;4.50;;;;;;;;;;10450401;28;20040;-59
2022/12/10 17:24:54;;;;;;;51.72;5.68;;;;;;;;;;10450970;28;20037;-64
2022/12/10 17:29:54;;;;;;;12.02;4.80;;;;;;;;;;10441233;28;20050;-64
2022/12/10 17:34:56;;;;;;;13.18;4.38;;;;;;;;;;10439595;28;20044;-65
2022/12/10 17:39:56;;;;;;;11.10;4.72;;;;;;;;;;10437680;28;20029;-61
2022/12/10 17:44:57;;;;;;;9.40;5.25;;;;;;;;;;10439025;28;20036;-59
2022/12/10 17:49:58;;;;;;;7.00;4.55;;;;;;;;;;10439170;28;20029;-61
2022/12/10 17:54:58;;;;;;;13.48;4.70;;;;;;;;;;10454019;28;20028;-58
2022/12/10 17:59:59;;;;;;;13.15;4.78;;;;;;;;;;10453027;28;20376;-58
2022/12/10 18:04:59;;;;;;;5.93;4.18;;;;;;;;;;10453286;28;20025;-60
2022/12/10 18:10:01;;;;;;;8.10;4.30;;;;;;;;;;10442405;28;20021;-57
2022/12/10 18:15:01;;;;;;;6.38;4.43;;;;;;;;;;10448165;28;20040;-59
2022/12/10 18:20:03;;;;;;;9.43;4.53;;;;;;;;;;10443940;28;20398;-58
2022/12/10 18:25:04;;;;;;;7.05;4.95;;;;;;;;;;10450699;28;20025;-58
2022/12/10 18:30:06;;;;;;;6.95;5.38;;;;;;;;;;10442659;28;20040;-58
2022/12/10 18:35:07;;;;;;;9.98;4.43;;;;;;;;;;10452153;28;20060;-60
2022/12/10 18:40:17;;;;;;;6.20;4.60;;;;;;;;;;10451110;28;20033;-57
2022/12/10 18:45:18;;;;;;;20.80;6.47;;;;;;;;;;10451990;28;20392;-58
2022/12/10 18:50:23;;;;;;;13.13;5.95;;;;;;;;;;10447774;28;20062;-60
2022/12/10 18:55:24;;;;;;;17.48;5.68;;;;;;;;;;10443421;28;20436;-58
2022/12/10 19:00:26;;;;;;;16.73;5.47;;;;;;;;;;10450252;28;20045;-58
2022/12/10 19:05:27;;;;;;;8.68;5.15;;;;;;;;;;10450948;28;20029;-58
2022/12/10 19:10:30;;;;;;;11.02;5.13;;;;;;;;;;10449987;28;20028;-58
2022/12/10 19:15:30;;;;;;;9.80;5.38;;;;;;;;;;10432072;28;20359;-58
2022/12/10 19:20:32;;;;;;;9.85;5.35;;;;;;;;;;10450223;28;20029;-58
2022/12/10 19:25:33;;;;;;;10.30;5.57;;;;;;;;;;10450056;28;20487;-59
2022/12/10 19:30:34;;;;;;;7.68;5.10;;;;;;;;;;10448621;28;20045;-61
2022/12/10 19:35:34;;;;;;;10.95;5.75;;;;;;;;;;10449569;28;20102;-58
2022/12/10 19:40:35;;;;;;;9.38;5.05;;;;;;;;;;10449321;28;20095;-58
2022/12/10 19:45:36;;;;;;;10.90;5.32;;;;;;;;;;10447905;28;20032;-58
2022/12/10 19:50:37;;;;;;;8.57;4.90;;;;;;;;;;10449131;28;20024;-58
2022/12/10 19:55:38;;;;;;;8.63;4.82;;;;;;;;;;10448225;28;20024;-58
2022/12/10 20:00:38;;;;;;;14.25;5.38;;;;;;;;;;10447382;28;20028;-59
2022/12/10 20:05:39;;;;;;;10.15;5.30;;;;;;;;;;10449623;28;20052;-58
2022/12/10 20:10:39;;;;;;;7.07;4.97;;;;;;;;;;10446774;28;20461;-59
2022/12/10 20:15:40;;;;;;;7.22;5.22;;;;;;;;;;10448728;28;20028;-59
2022/12/10 20:20:41;;;;;;;7.03;4.97;;;;;;;;;;10447836;28;20041;-60
2022/12/10 20:25:44;;;;;;;6.93;4.60;;;;;;;;;;10447053;28;20087;-58
2022/12/10 20:30:44;;;;;;;7.57;4.82;;;;;;;;;;10446404;28;20111;-58
2022/12/10 20:35:45;;;;;;;7.75;4.55;;;;;;;;;;10447399;28;20090;-59
2022/12/10 20:40:46;;;;;;;9.02;4.93;;;;;;;;;;10445893;28;20491;-61
2022/12/10 20:45:46;;;;;;;7.97;4.68;;;;;;;;;;10448308;28;20025;-58
2022/12/10 20:50:47;;;;;;;6.68;4.57;;;;;;;;;;10446037;28;20025;-58
2022/12/10 20:55:47;;;;;;;6.18;4.43;;;;;;;;;;10447195;28;20029;-57
2022/12/10 21:00:48;;;;;;;6.80;4.50;;;;;;;;;;10447083;28;20025;-59
2022/12/10 21:05:48;;;;;;;11.15;4.82;;;;;;;;;;10446135;28;20018;-58
2022/12/10 21:10:53;;;;;;;6.13;4.07;;;;;;;;;;10445610;28;20418;-58
2022/12/10 21:15:57;;;;;;;6.75;4.72;;;;;;;;;;10446175;28;20072;-59
2022/12/10 21:21:00;;;;;;;7.70;4.53;;;;;;;;;;10445887;28;20445;-59
2022/12/10 21:26:00;;;;;;;6.25;4.00;;;;;;;;;;10445060;28;20032;-58
2022/12/10 21:31:01;;;;;;;7.25;4.25;;;;;;;;;;10444462;28;20439;-59
2022/12/10 21:36:02;;;;;;;5.47;4.07;;;;;;;;;;10452807;28;20056;-59
2022/12/10 21:46:36;;;;;;;4.97;3.92;;;;;;;;;;10429739;28;20040;-57
2022/12/10 21:51:36;;;;;;;6.05;3.67;;;;;;;;;;10452452;28;20036;-58
2022/12/10 21:56:38;;;;;;;5.40;4.15;;;;;;;;;;10452482;28;20537;-58
2022/12/10 22:01:39;;;;;;;5.88;4.05;;;;;;;;;;10453711;28;20021;-57
2022/12/10 22:06:39;;;;;;;5.72;3.72;;;;;;;;;;10453820;28;20021;-58
2022/12/10 22:11:40;;;;;;;6.38;4.25;;;;;;;;;;10452178;28;20036;-58
2022/12/10 22:16:41;;;;;;;5.60;4.25;;;;;;;;;;10452219;28;20037;-58
2022/12/10 22:21:41;;;;;;;4.20;3.70;;;;;;;;;;10452726;28;20021;-57
2022/12/10 22:26:42;;;;;;;6.97;3.83;;;;;;;;;;10451978;28;20025;-58
2022/12/10 22:31:42;;;;;;;6.20;3.90;;;;;;;;;;10451650;28;20053;-58
2022/12/10 22:36:43;;;;;;;6.45;3.67;;;;;;;;;;10451244;28;20029;-57
2022/12/10 22:41:44;;;;;;;4.18;3.60;;;;;;;;;;10434138;28;20029;-60
2022/12/10 22:46:46;;;;;;;5.45;4.00;;;;;;;;;;10444925;28;20017;-57
2022/12/10 22:51:46;;;;;;;4.35;3.25;;;;;;;;;;10448683;28;20024;-58
2022/12/10 22:56:47;;;;;;;6.35;3.80;;;;;;;;;;10439325;28;20028;-59
2022/12/10 23:01:47;;;;;;;5.07;3.60;;;;;;;;;;10442172;28;20025;-53
2022/12/10 23:06:49;;;;;;;5.35;3.67;;;;;;;;;;10450313;28;20021;-59
2022/12/10 23:17:09;;;;;;;7.68;3.60;;;;;;;;;;10437616;28;20173;-59
2022/12/10 23:22:10;;;;;;;4.70;3.70;;;;;;;;;;10449225;28;20034;-57
2022/12/10 23:27:10;;;;;;;5.32;3.75;;;;;;;;;;10449422;28;20121;-55
2022/12/10 23:32:11;;;;;;;5.32;4.07;;;;;;;;;;10450017;28;20056;-55
2022/12/10 23:37:12;;;;;;;12.02;3.95;;;;;;;;;;10449533;28;20033;-59
2022/12/10 23:42:12;;;;;;;5.07;3.88;;;;;;;;;;10449318;28;20037;-61
2022/12/10 23:47:13;;;;;;;6.20;3.85;;;;;;;;;;10448406;28;20025;-61
2022/12/10 23:52:15;;;;;;;5.70;3.53;;;;;;;;;;10448185;28;20020;-58
2022/12/10 23:57:16;;;;;;;4.85;3.85;;;;;;;;;;10448077;28;20036;-53
